Time;durP1;ratioP1;P1;durP2;ratioP2;P2;SDS_P1;SDS_P2;PMS_P1;PMS_P2;Temp;Humidity;BMP_temperature;BMP_pressure;BME280_temperature;BME280_humidity;BME280_pressure;Samples;Min_cycle;Max_cycle;Signal;HPM_P1;HPM_P2
2023/08/20 00:00:58;;;;;;;12.48;7.32;;;21.30;99.90;;;;;;2496161;23;20079;-74
2023/08/20 00:02:01;;;;;;;6.60;6.00;;;21.30;99.90;;;;;;2497018;23;20000;-74
2023/08/20 00:03:12;;;;;;;9.25;6.57;;;21.30;99.90;;;;;;2495600;23;20097;-74
2023/08/20 00:04:13;;;;;;;6.25;5.72;;;21.30;99.90;;;;;;2494754;23;20004;-74
2023/08/20 00:05:14;;;;;;;7.70;6.35;;;21.30;99.90;;;;;;2494705;23;20007;-74
2023/08/20 00:06:15;;;;;;;11.07;5.93;;;21.20;99.90;;;;;;2495546;23;20011;-74
2023/08/20 00:07:18;;;;;;;7.60;6.07;;;21.30;99.90;;;;;;2495992;23;20031;-74
2023/08/20 00:08:18;;;;;;;6.53;5.85;;;21.30;99.90;;;;;;2496563;23;20026;-74
2023/08/20 00:09:19;;;;;;;5.75;5.25;;;21.20;99.90;;;;;;2483259;23;20012;-74
2023/08/20 00:10:20;;;;;;;6.63;5.70;;;21.20;99.90;;;;;;2484579;23;20003;-74
2023/08/20 00:11:20;;;;;;;6.90;6.18;;;21.20;99.90;;;;;;2496189;23;19999;-74
2023/08/20 00:12:22;;;;;;;7.50;6.00;;;21.20;99.90;;;;;;2495769;23;20083;-74
2023/08/20 00:13:22;;;;;;;6.40;5.82;;;21.20;99.90;;;;;;2484537;23;20131;-74
2023/08/20 00:14:56;;;;;;;6.45;5.65;;;21.20;99.90;;;;;;2483487;23;20072;-74
2023/08/20 00:15:57;;;;;;;9.05;5.30;;;21.20;99.90;;;;;;2496465;23;20071;-74
2023/08/20 00:16:58;;;;;;;6.18;5.45;;;21.10;99.90;;;;;;2496571;23;20006;-74
2023/08/20 00:17:58;;;;;;;7.03;5.80;;;21.20;99.90;;;;;;2496127;23;20373;-74
2023/08/20 00:18:59;;;;;;;6.57;5.45;;;21.20;99.90;;;;;;2495522;23;20018;-74
2023/08/20 00:20:01;;;;;;;8.77;5.80;;;21.20;99.90;;;;;;2497037;23;19999;-74
2023/08/20 00:21:02;;;;;;;6.97;5.50;;;21.20;99.90;;;;;;2496512;23;20011;-74
2023/08/20 00:22:03;;;;;;;8.48;6.00;;;21.10;99.90;;;;;;2494937;23;20011;-74
2023/08/20 00:23:04;;;;;;;5.45;4.95;;;21.10;99.90;;;;;;2495756;23;20042;-74
2023/08/20 00:24:05;;;;;;;10.77;6.05;;;21.10;99.90;;;;;;2494920;23;20327;-74
2023/08/20 00:25:07;;;;;;;8.18;5.93;;;21.20;99.90;;;;;;2496555;23;20014;-74
2023/08/20 00:26:09;;;;;;;7.22;5.00;;;21.10;99.90;;;;;;2496515;23;20051;-74
2023/08/20 00:27:09;;;;;;;5.97;5.32;;;21.10;99.90;;;;;;2496432;23;19996;-75
2023/08/20 00:28:10;;;;;;;5.88;5.32;;;21.10;99.90;;;;;;2483677;23;20437;-74
2023/08/20 00:29:10;;;;;;;5.78;5.25;;;21.10;99.90;;;;;;2483962;23;20633;-74
2023/08/20 00:30:11;;;;;;;5.95;5.35;;;21.10;99.90;;;;;;2496771;23;20003;-74
2023/08/20 00:31:12;;;;;;;6.28;5.20;;;21.10;99.90;;;;;;2495134;23;20082;-74
2023/08/20 00:32:15;;;;;;;5.72;5.15;;;21.10;99.90;;;;;;2496074;23;20103;-74
2023/08/20 00:33:15;;;;;;;5.85;5.25;;;21.10;99.90;;;;;;2496250;23;20031;-74
2023/08/20 00:34:16;;;;;;;8.23;5.78;;;21.10;99.90;;;;;;2495916;23;20008;-74
2023/08/20 00:35:16;;;;;;;5.70;4.72;;;21.10;99.90;;;;;;2495759;23;20062;-74
2023/08/20 00:36:17;;;;;;;6.40;5.35;;;21.10;99.90;;;;;;2495303;23;20003;-74
2023/08/20 00:37:18;;;;;;;6.13;5.25;;;21.10;99.90;;;;;;2496462;23;20084;-74
2023/08/20 00:38:18;;;;;;;6.32;4.60;;;21.00;99.90;;;;;;2496288;23;20385;-74
2023/08/20 00:39:19;;;;;;;7.03;5.82;;;21.10;99.90;;;;;;2496209;23;20031;-74
2023/08/20 00:40:19;;;;;;;7.70;5.80;;;21.10;99.90;;;;;;2483425;23;20052;-74
2023/08/20 00:41:20;;;;;;;6.60;5.93;;;21.00;99.90;;;;;;2472192;24;20064;-74
2023/08/20 00:42:20;;;;;;;7.35;5.88;;;21.00;99.90;;;;;;2483422;23;20079;-74
2023/08/20 00:43:21;;;;;;;8.68;5.82;;;21.00;99.90;;;;;;2496726;23;20003;-74
2023/08/20 00:44:21;;;;;;;6.28;5.18;;;21.00;99.90;;;;;;2495942;23;20377;-74
2023/08/20 00:45:23;;;;;;;7.05;5.00;;;21.00;99.90;;;;;;2495381;23;20425;-74
2023/08/20 00:46:24;;;;;;;9.20;5.75;;;21.00;99.90;;;;;;2496924;23;20011;-74
2023/08/20 00:47:25;;;;;;;7.88;5.38;;;21.00;99.90;;;;;;2495927;23;20000;-74
2023/08/20 00:48:26;;;;;;;6.82;5.10;;;21.00;99.90;;;;;;2496404;23;20038;-74
2023/08/20 00:49:26;;;;;;;6.20;5.60;;;21.00;99.90;;;;;;2496494;23;20011;-74
2023/08/20 00:50:27;;;;;;;5.35;4.85;;;21.00;99.90;;;;;;2495908;23;20399;-74
2023/08/20 00:51:28;;;;;;;6.55;4.90;;;21.00;99.90;;;;;;2483349;23;20004;-74
2023/08/20 00:52:29;;;;;;;10.00;5.72;;;21.00;99.90;;;;;;2483035;23;20032;-74
2023/08/20 00:53:30;;;;;;;5.53;5.03;;;21.00;99.90;;;;;;2495647;23;20437;-74
2023/08/20 00:54:32;;;;;;;9.27;6.57;;;21.00;99.90;;;;;;2496514;23;20079;-74
2023/08/20 00:55:33;;;;;;;5.63;4.85;;;21.00;99.90;;;;;;2496615;23;20352;-74
2023/08/20 00:56:33;;;;;;;6.57;5.38;;;20.90;99.90;;;;;;2496456;23;20087;-74
2023/08/20 00:57:35;;;;;;;9.90;5.82;;;20.90;99.90;;;;;;2495828;23;20009;-74
2023/08/20 00:58:36;;;;;;;10.02;7.57;;;20.90;99.90;;;;;;2496767;23;20447;-74
2023/08/20 00:59:37;;;;;;;8.85;7.60;;;20.90;99.90;;;;;;2496256;23;20406;-74
2023/08/20 01:00:37;;;;;;;7.72;6.95;;;20.90;99.90;;;;;;2496347;23;20008;-74
2023/08/20 01:01:38;;;;;;;9.70;7.50;;;20.90;99.90;;;;;;2496121;23;20055;-74
2023/08/20 01:02:39;;;;;;;8.32;7.55;;;20.90;99.90;;;;;;2494921;23;20011;-74
2023/08/20 01:03:40;;;;;;;8.60;7.72;;;20.90;99.90;;;;;;2496612;23;20003;-74
2023/08/20 01:04:41;;;;;;;10.15;8.98;;;20.90;99.90;;;;;;2496157;23;20003;-74
2023/08/20 01:05:50;;;;;;;10.73;9.32;;;20.90;99.90;;;;;;2496015;23;20015;-74
2023/08/20 01:07:14;;;;;;;11.50;10.30;;;20.90;99.90;;;;;;2495668;23;20013;-74
2023/08/20 01:08:38;;;;;;;15.40;10.40;;;20.80;99.90;;;;;;2495664;23;20335;-74
2023/08/20 01:10:01;;;;;;;14.15;9.95;;;20.80;99.90;;;;;;2494879;23;20746;-75
2023/08/20 01:11:06;;;;;;;10.70;9.68;;;20.80;99.90;;;;;;2495625;23;20051;-74
2023/08/20 01:12:08;;;;;;;13.05;11.73;;;20.80;99.90;;;;;;2496474;23;20042;-74
2023/08/20 01:13:09;;;;;;;15.65;12.25;;;20.80;99.90;;;;;;2508697;23;20006;-74
2023/08/20 01:14:17;;;;;;;15.85;13.13;;;20.80;99.90;;;;;;2507548;23;20444;-74
2023/08/20 01:15:17;;;;;;;17.33;12.50;;;20.80;99.90;;;;;;2508182;23;20002;-74
2023/08/20 01:16:18;;;;;;;14.60;12.30;;;20.80;99.90;;;;;;2508197;23;20006;-74
2023/08/20 01:17:18;;;;;;;18.77;13.73;;;20.80;99.90;;;;;;2507237;23;20030;-74
2023/08/20 01:18:19;;;;;;;15.75;13.88;;;20.80;99.90;;;;;;2507304;23;20077;-74
2023/08/20 01:19:21;;;;;;;14.93;12.23;;;20.80;99.90;;;;;;2508257;23;20094;-74
2023/08/20 01:20:26;;;;;;;15.43;13.73;;;20.80;99.90;;;;;;2507634;23;20058;-74
2023/08/20 01:21:39;;;;;;;15.82;13.43;;;20.90;99.90;;;;;;2507807;23;20006;-74
2023/08/20 01:22:49;;;;;;;15.18;13.65;;;20.90;99.90;;;;;;2507587;23;20460;-75
2023/08/20 01:24:17;;;;;;;17.20;13.02;;;20.90;99.90;;;;;;2518292;23;20009;-74
2023/08/20 01:25:36;;;;;;;18.60;13.77;;;20.80;99.90;;;;;;2514139;23;20428;-74
2023/08/20 01:27:25;;;;;;;16.05;13.85;;;20.80;99.90;;;;;;2507630;23;19995;-74
2023/08/20 01:28:30;;;;;;;15.48;13.90;;;20.80;99.90;;;;;;2507530;23;20448;-74
2023/08/20 01:29:32;;;;;;;16.20;13.23;;;20.80;99.90;;;;;;2507873;23;20432;-74
2023/08/20 01:30:33;;;;;;;15.93;13.70;;;20.80;99.90;;;;;;2507595;23;20474;-74
2023/08/20 01:31:34;;;;;;;14.50;13.10;;;20.80;99.90;;;;;;2507572;23;20007;-74
2023/08/20 01:32:36;;;;;;;17.73;14.68;;;20.80;99.90;;;;;;2507569;23;20066;-74
2023/08/20 01:33:37;;;;;;;16.02;13.38;;;20.90;99.90;;;;;;2507046;23;20006;-74
2023/08/20 01:34:38;;;;;;;15.98;14.35;;;20.90;99.90;;;;;;2508463;23;20033;-74
2023/08/20 01:35:39;;;;;;;16.27;14.32;;;20.90;99.90;;;;;;2507511;23;20006;-74
2023/08/20 01:36:39;;;;;;;15.20;13.48;;;20.90;99.90;;;;;;2507837;23;20034;-74
2023/08/20 01:37:40;;;;;;;15.10;13.38;;;20.90;99.90;;;;;;2519479;23;20582;-74
2023/08/20 01:38:41;;;;;;;13.15;11.23;;;20.90;99.90;;;;;;2506818;23;20046;-74
2023/08/20 01:39:41;;;;;;;15.15;11.88;;;20.90;99.90;;;;;;2496019;23;20015;-74
2023/08/20 01:40:42;;;;;;;15.63;13.45;;;20.90;99.90;;;;;;2506016;23;20040;-74
2023/08/20 01:41:43;;;;;;;16.63;12.38;;;20.90;99.90;;;;;;2507453;23;20010;-74
2023/08/20 01:42:43;;;;;;;15.75;12.07;;;20.90;99.90;;;;;;2507272;23;20062;-74
2023/08/20 01:43:44;;;;;;;14.88;12.93;;;20.90;99.90;;;;;;2506793;23;20015;-74
2023/08/20 01:44:44;;;;;;;13.30;11.95;;;20.90;99.90;;;;;;2506753;23;20006;-74
2023/08/20 01:45:45;;;;;;;12.88;11.65;;;21.00;99.90;;;;;;2506131;23;20062;-74
2023/08/20 01:46:46;;;;;;;14.38;12.52;;;20.90;99.90;;;;;;2506963;23;20046;-74
2023/08/20 01:47:46;;;;;;;13.10;11.63;;;21.00;99.90;;;;;;2507952;23;20026;-74
2023/08/20 01:48:47;;;;;;;12.70;10.40;;;21.00;99.90;;;;;;2507540;23;20752;-74
2023/08/20 01:49:47;;;;;;;11.38;9.63;;;20.90;99.90;;;;;;2506548;23;20011;-74
2023/08/20 01:50:48;;;;;;;11.27;10.18;;;20.90;99.90;;;;;;2507129;23;20007;-74
2023/08/20 01:51:49;;;;;;;12.45;10.00;;;21.00;99.90;;;;;;2508122;23;20074;-74
2023/08/20 01:52:49;;;;;;;13.45;12.15;;;20.90;99.90;;;;;;2507437;23;20010;-74
2023/08/20 01:53:50;;;;;;;14.68;13.05;;;20.90;99.90;;;;;;2507817;23;20006;-74
2023/08/20 01:54:50;;;;;;;15.80;12.95;;;20.90;99.90;;;;;;2507942;23;20017;-74
2023/08/20 01:55:51;;;;;;;17.40;13.23;;;20.90;99.90;;;;;;2508090;23;20045;-74
2023/08/20 01:56:51;;;;;;;13.68;12.25;;;20.90;99.90;;;;;;2506827;23;20507;-74
2023/08/20 01:57:52;;;;;;;13.18;11.77;;;21.00;99.90;;;;;;2507377;23;20019;-74
2023/08/20 01:58:53;;;;;;;12.43;10.85;;;20.90;99.90;;;;;;2507774;23;20394;-74
2023/08/20 01:59:53;;;;;;;14.05;12.05;;;21.00;99.90;;;;;;2507080;23;20014;-74
2023/08/20 02:00:54;;;;;;;10.57;9.48;;;20.90;99.90;;;;;;2506703;23;20041;-74
2023/08/20 02:01:54;;;;;;;11.05;9.95;;;21.00;99.90;;;;;;2506975;23;20011;-74
2023/08/20 02:02:55;;;;;;;11.27;10.18;;;20.90;99.90;;;;;;2518615;23;20093;-74
2023/08/20 02:03:56;;;;;;;13.00;11.70;;;20.90;99.90;;;;;;2518578;23;20066;-74
2023/08/20 02:04:56;;;;;;;15.95;12.20;;;20.90;99.90;;;;;;2507561;23;20870;-74
2023/08/20 02:05:57;;;;;;;12.35;11.18;;;20.90;99.90;;;;;;2507903;23;20038;-74
2023/08/20 02:06:58;;;;;;;11.25;10.23;;;20.90;99.90;;;;;;2506648;23;19999;-74
2023/08/20 02:07:59;;;;;;;10.35;9.45;;;20.90;99.90;;;;;;2506921;23;20685;-74
2023/08/20 02:08:59;;;;;;;13.20;11.35;;;20.90;99.90;;;;;;2507356;23;20384;-74
2023/08/20 02:10:00;;;;;;;10.68;9.65;;;20.90;99.90;;;;;;2506812;23;20265;-74
2023/08/20 02:11:02;;;;;;;10.98;9.68;;;20.90;99.90;;;;;;2495150;23;20019;-74
2023/08/20 02:12:03;;;;;;;13.52;11.40;;;20.90;99.90;;;;;;2493637;23;20042;-74
2023/08/20 02:13:05;;;;;;;10.80;9.70;;;20.90;99.90;;;;;;2507082;23;20006;-74
2023/08/20 02:14:05;;;;;;;10.02;9.02;;;20.90;99.90;;;;;;2507659;23;20002;-74
2023/08/20 02:15:06;;;;;;;11.38;9.40;;;20.90;99.90;;;;;;2518803;23;20014;-74
2023/08/20 02:16:07;;;;;;;11.80;10.73;;;20.80;99.90;;;;;;2518824;23;20105;-74
2023/08/20 02:17:08;;;;;;;11.77;10.63;;;20.80;99.90;;;;;;2506515;23;20432;-74
2023/08/20 02:18:08;;;;;;;12.18;11.07;;;20.80;99.90;;;;;;2506535;23;20448;-74
2023/08/20 02:19:09;;;;;;;11.48;10.27;;;20.80;99.90;;;;;;2507067;23;20059;-74
2023/08/20 02:20:10;;;;;;;12.18;10.18;;;20.80;99.90;;;;;;2507048;23;20014;-74
2023/08/20 02:21:10;;;;;;;11.05;10.02;;;20.80;99.90;;;;;;2506765;23;20007;-74
2023/08/20 02:22:11;;;;;;;11.13;9.55;;;20.80;99.90;;;;;;2518553;23;20006;-74
2023/08/20 02:23:12;;;;;;;11.07;9.95;;;20.80;99.90;;;;;;2518807;23;20312;-74
2023/08/20 02:24:12;;;;;;;10.27;9.30;;;20.80;99.90;;;;;;2508268;23;20014;-74
2023/08/20 02:25:13;;;;;;;10.70;9.60;;;20.80;99.90;;;;;;2507344;23;19998;-74
2023/08/20 02:26:14;;;;;;;9.10;8.20;;;20.80;99.90;;;;;;2507861;23;20006;-74
2023/08/20 02:27:15;;;;;;;10.63;9.63;;;20.80;99.90;;;;;;2507554;23;19999;-74
2023/08/20 02:28:16;;;;;;;9.27;8.27;;;20.70;99.90;;;;;;2508132;23;20033;-74
2023/08/20 02:29:16;;;;;;;10.88;9.75;;;20.70;99.90;;;;;;2508016;23;20510;-74
2023/08/20 02:30:17;;;;;;;10.68;9.65;;;20.70;99.90;;;;;;2507515;23;20003;-74
2023/08/20 02:31:17;;;;;;;11.95;9.57;;;20.70;99.90;;;;;;2507895;23;20462;-74
2023/08/20 02:32:18;;;;;;;10.95;9.85;;;20.70;99.90;;;;;;2507456;23;20003;-74
2023/08/20 02:33:19;;;;;;;11.32;9.90;;;20.70;99.90;;;;;;2507969;23;20006;-74
2023/08/20 02:34:19;;;;;;;9.63;8.18;;;20.70;99.90;;;;;;2508012;23;20013;-74
2023/08/20 02:35:20;;;;;;;10.93;9.80;;;20.70;99.90;;;;;;2507373;23;20026;-74
2023/08/20 02:36:21;;;;;;;9.85;8.90;;;20.70;99.90;;;;;;2508147;23;20005;-74
2023/08/20 02:37:21;;;;;;;9.82;8.45;;;20.60;99.90;;;;;;2508017;23;20281;-74
2023/08/20 02:38:22;;;;;;;12.18;10.50;;;20.70;99.90;;;;;;2507947;23;20038;-74
2023/08/20 02:39:24;;;;;;;13.13;10.95;;;20.60;99.90;;;;;;2508273;23;20007;-74
2023/08/20 02:40:25;;;;;;;12.70;9.57;;;20.60;99.90;;;;;;2507577;23;20010;-74
2023/08/20 02:41:25;;;;;;;10.32;9.25;;;20.60;99.90;;;;;;2507185;23;20007;-74
2023/08/20 02:42:26;;;;;;;10.00;8.82;;;20.60;99.90;;;;;;2518658;23;20403;-74
2023/08/20 02:43:26;;;;;;;10.05;9.05;;;20.60;99.90;;;;;;2517069;23;20026;-74
2023/08/20 02:44:27;;;;;;;10.38;9.48;;;20.60;99.90;;;;;;2507915;23;20047;-74
2023/08/20 02:45:28;;;;;;;12.23;10.50;;;20.60;99.90;;;;;;2507529;23;20013;-74
2023/08/20 02:46:28;;;;;;;11.23;10.13;;;20.60;99.90;;;;;;2508195;23;20014;-74
2023/08/20 02:47:29;;;;;;;10.98;9.85;;;20.60;99.90;;;;;;2507503;23;20006;-74
2023/08/20 02:48:30;;;;;;;11.50;10.35;;;20.60;99.90;;;;;;2518541;23;20408;-74
2023/08/20 02:49:30;;;;;;;11.82;10.63;;;20.60;99.90;;;;;;2519552;23;20002;-74
2023/08/20 02:50:31;;;;;;;12.60;9.95;;;20.60;99.90;;;;;;2507420;23;20077;-74
2023/08/20 02:51:31;;;;;;;8.38;7.55;;;20.60;99.90;;;;;;2508230;23;20460;-74
2023/08/20 02:52:32;;;;;;;12.75;10.23;;;20.60;99.90;;;;;;2507328;23;20062;-74
2023/08/20 02:53:33;;;;;;;9.65;8.73;;;20.50;99.90;;;;;;2507620;23;20078;-74
2023/08/20 02:54:33;;;;;;;10.30;9.30;;;20.60;99.90;;;;;;2508099;23;20042;-74
2023/08/20 02:55:35;;;;;;;10.02;9.13;;;20.50;99.90;;;;;;2506983;23;20015;-74
2023/08/20 02:56:35;;;;;;;12.00;10.80;;;20.60;99.90;;;;;;2506461;23;20758;-74
2023/08/20 02:57:36;;;;;;;13.00;10.80;;;20.50;99.90;;;;;;2519365;23;20085;-74
2023/08/20 02:58:37;;;;;;;10.55;9.55;;;20.50;99.90;;;;;;2518661;23;20014;-74
2023/08/20 02:59:37;;;;;;;9.63;8.65;;;20.50;99.90;;;;;;2507694;23;20070;-74
2023/08/20 03:00:38;;;;;;;12.00;9.73;;;20.50;99.90;;;;;;2507994;23;20011;-74
2023/08/20 03:01:39;;;;;;;12.10;10.75;;;20.50;99.90;;;;;;2507824;23;20017;-74
2023/08/20 03:02:41;;;;;;;10.85;9.77;;;20.50;99.90;;;;;;2507129;23;20007;-75
2023/08/20 03:03:42;;;;;;;12.77;11.50;;;20.50;99.90;;;;;;2508027;23;20014;-74
2023/08/20 03:04:42;;;;;;;10.93;9.82;;;20.50;99.90;;;;;;2507358;23;20014;-74
2023/08/20 03:05:43;;;;;;;15.75;13.10;;;20.50;99.90;;;;;;2518524;23;20017;-75
2023/08/20 03:06:43;;;;;;;17.85;14.10;;;20.50;99.90;;;;;;2518603;23;20003;-75
2023/08/20 03:07:44;;;;;;;14.20;12.65;;;20.50;99.90;;;;;;2507636;23;20305;-75
2023/08/20 03:08:45;;;;;;;14.00;11.98;;;20.50;99.90;;;;;;2508318;23;19999;-74
2023/08/20 03:09:46;;;;;;;14.45;12.95;;;20.50;99.90;;;;;;2507971;23;20003;-74
2023/08/20 03:10:47;;;;;;;13.05;11.65;;;20.50;99.90;;;;;;2507040;23;20003;-74
2023/08/20 03:11:47;;;;;;;10.57;9.60;;;20.50;99.90;;;;;;2508259;23;20011;-74
2023/08/20 03:12:48;;;;;;;13.40;11.45;;;20.50;99.90;;;;;;2497437;23;20007;-74
2023/08/20 03:13:48;;;;;;;11.25;10.25;;;20.50;99.90;;;;;;2496555;23;20007;-74
2023/08/20 03:14:49;;;;;;;11.68;10.57;;;20.50;99.90;;;;;;2494049;23;20007;-74
2023/08/20 03:15:50;;;;;;;12.88;11.65;;;20.50;99.90;;;;;;2495199;23;20003;-74
2023/08/20 03:16:50;;;;;;;11.05;9.95;;;20.50;99.90;;;;;;2495957;23;20381;-74
2023/08/20 03:17:51;;;;;;;13.63;12.23;;;20.50;99.90;;;;;;2483183;23;20012;-74
2023/08/20 03:18:51;;;;;;;12.80;10.80;;;20.50;99.90;;;;;;2483749;23;20012;-74
2023/08/20 03:19:57;;;;;;;12.70;11.43;;;20.50;99.90;;;;;;2495747;23;20515;-74
2023/08/20 03:20:58;;;;;;;10.93;9.82;;;20.50;99.90;;;;;;2495291;23;20010;-74
2023/08/20 03:21:58;;;;;;;12.40;11.20;;;20.50;99.90;;;;;;2495972;23;20015;-74
2023/08/20 03:22:59;;;;;;;14.57;11.85;;;20.50;99.90;;;;;;2494503;23;19999;-74
2023/08/20 03:23:59;;;;;;;13.68;11.52;;;20.50;99.90;;;;;;2496288;23;20010;-74
2023/08/20 03:25:00;;;;;;;13.25;11.85;;;20.50;99.90;;;;;;2495936;23;20030;-74
2023/08/20 03:26:00;;;;;;;14.18;12.80;;;20.50;99.90;;;;;;2495515;23;20019;-74
2023/08/20 03:27:01;;;;;;;14.57;13.10;;;20.50;99.90;;;;;;2496182;23;20003;-74
2023/08/20 03:28:02;;;;;;;13.73;12.45;;;20.50;99.90;;;;;;2494593;23;20030;-74
2023/08/20 03:29:03;;;;;;;11.80;10.60;;;20.50;99.90;;;;;;2495280;23;20010;-74
2023/08/20 03:30:04;;;;;;;17.38;13.30;;;20.50;99.90;;;;;;2495746;23;20038;-74
2023/08/20 03:31:05;;;;;;;12.60;11.30;;;20.50;99.90;;;;;;2495772;23;20063;-74
2023/08/20 03:32:05;;;;;;;13.15;11.80;;;20.50;99.90;;;;;;2495490;23;20007;-75
2023/08/20 03:33:06;;;;;;;13.40;11.75;;;20.50;99.90;;;;;;2496236;23;19999;-74
2023/08/20 03:34:08;;;;;;;14.13;12.70;;;20.50;99.90;;;;;;2494900;23;20007;-74
2023/08/20 03:35:09;;;;;;;14.77;12.38;;;20.50;99.90;;;;;;2493773;23;20364;-74
2023/08/20 03:36:09;;;;;;;12.63;11.40;;;20.40;99.90;;;;;;2483535;23;20026;-74
2023/08/20 03:37:10;;;;;;;11.25;10.10;;;20.50;99.90;;;;;;2494776;23;20034;-74
2023/08/20 03:38:10;;;;;;;14.27;12.90;;;20.50;99.90;;;;;;2495794;23;20484;-74
2023/08/20 03:39:11;;;;;;;18.00;13.63;;;20.50;99.90;;;;;;2495205;23;20014;-74
2023/08/20 03:40:12;;;;;;;15.18;12.95;;;20.50;99.90;;;;;;2495287;23;20010;-74
2023/08/20 03:41:12;;;;;;;14.48;13.15;;;20.40;99.90;;;;;;2495977;23;20067;-74
2023/08/20 03:42:13;;;;;;;21.40;14.48;;;20.40;99.90;;;;;;2494802;23;20086;-74
2023/08/20 03:43:13;;;;;;;17.25;13.95;;;20.50;99.90;;;;;;2495813;23;20013;-74
2023/08/20 03:44:14;;;;;;;13.30;11.95;;;20.40;99.90;;;;;;2496389;23;20022;-74
2023/08/20 03:45:15;;;;;;;14.50;12.40;;;20.40;99.90;;;;;;2494962;23;20086;-74
2023/08/20 03:46:16;;;;;;;13.57;12.18;;;20.40;99.90;;;;;;2495675;23;19999;-74
2023/08/20 03:47:20;;;;;;;13.43;12.07;;;20.50;99.90;;;;;;2496200;23;20003;-74
2023/08/20 03:48:21;;;;;;;14.43;12.93;;;20.40;99.90;;;;;;2494985;23;20035;-74
2023/08/20 03:49:22;;;;;;;16.48;13.65;;;20.50;99.90;;;;;;2494870;23;20007;-74
2023/08/20 03:50:22;;;;;;;13.95;12.57;;;20.40;99.90;;;;;;2496055;23;20000;-74
2023/08/20 03:51:23;;;;;;;14.77;13.30;;;20.40;99.90;;;;;;2495728;23;20444;-74
2023/08/20 03:52:23;;;;;;;15.35;13.65;;;20.50;99.90;;;;;;2495531;23;20015;-74
2023/08/20 03:53:24;;;;;;;16.00;14.13;;;20.40;99.90;;;;;;2495778;23;20019;-74
2023/08/20 03:54:25;;;;;;;15.65;14.00;;;20.50;99.90;;;;;;2496476;23;20023;-74
2023/08/20 03:55:25;;;;;;;15.90;13.48;;;20.50;99.90;;;;;;2494389;23;20038;-74
2023/08/20 03:56:26;;;;;;;16.75;14.68;;;20.50;99.90;;;;;;2494554;23;20007;-74
2023/08/20 03:57:26;;;;;;;15.88;14.18;;;20.50;99.90;;;;;;2496058;23;20035;-74
2023/08/20 03:58:27;;;;;;;17.50;13.98;;;20.50;99.90;;;;;;2495720;23;20003;-74
2023/08/20 03:59:27;;;;;;;15.38;13.75;;;20.50;99.90;;;;;;2495551;23;20000;-74
2023/08/20 04:00:28;;;;;;;16.13;14.43;;;20.50;99.90;;;;;;2495810;23;20488;-74
2023/08/20 04:01:28;;;;;;;15.38;13.85;;;20.50;99.90;;;;;;2495572;23;20038;-74
2023/08/20 04:02:29;;;;;;;17.05;15.40;;;20.50;99.90;;;;;;2495165;23;20037;-74
2023/08/20 04:03:29;;;;;;;15.90;14.23;;;20.50;99.90;;;;;;2495182;23;20003;-74
2023/08/20 04:04:30;;;;;;;14.60;13.13;;;20.50;99.90;;;;;;2495557;23;20689;-74
2023/08/20 04:05:36;;;;;;;14.93;13.50;;;20.50;99.90;;;;;;2495969;23;19999;-74
2023/08/20 04:06:36;;;;;;;16.45;14.45;;;20.50;99.90;;;;;;2494769;23;20401;-74
2023/08/20 04:07:37;;;;;;;14.93;13.23;;;20.50;99.90;;;;;;2494333;23;20043;-74
2023/08/20 04:08:38;;;;;;;16.95;15.00;;;20.60;99.90;;;;;;2496115;23;19996;-74
2023/08/20 04:09:39;;;;;;;14.95;13.43;;;20.50;99.90;;;;;;2494949;23;20114;-75
2023/08/20 04:10:47;;;;;;;15.75;14.20;;;20.60;99.90;;;;;;2495378;23;20007;-75
2023/08/20 04:11:47;;;;;;;18.92;16.92;;;20.60;99.90;;;;;;2494935;23;20014;-74
2023/08/20 04:12:48;;;;;;;19.15;17.23;;;20.60;99.90;;;;;;2494920;23;20007;-75
2023/08/20 04:13:48;;;;;;;21.83;17.20;;;20.60;99.90;;;;;;2496762;23;20026;-74
2023/08/20 04:14:49;;;;;;;22.55;18.77;;;20.60;99.90;;;;;;2495723;23;20027;-74
2023/08/20 04:15:51;;;;;;;19.45;17.45;;;20.60;99.90;;;;;;2496290;23;20041;-74
2023/08/20 04:16:52;;;;;;;20.05;18.05;;;20.60;99.90;;;;;;2495947;23;20015;-74
2023/08/20 04:17:52;;;;;;;22.00;19.73;;;20.60;99.90;;;;;;2495511;23;20472;-74
2023/08/20 04:18:53;;;;;;;23.45;19.52;;;20.60;99.90;;;;;;2496668;23;20042;-74
2023/08/20 04:19:53;;;;;;;24.15;19.05;;;20.60;99.90;;;;;;2496096;23;20159;-74
2023/08/20 04:20:55;;;;;;;20.17;16.60;;;20.60;99.90;;;;;;2496737;23;20094;-74
2023/08/20 04:21:55;;;;;;;20.52;17.48;;;20.60;99.90;;;;;;2496409;23;20034;-74
2023/08/20 04:22:56;;;;;;;23.08;19.45;;;20.60;99.90;;;;;;2495447;23;20014;-74
2023/08/20 04:23:56;;;;;;;20.10;17.67;;;20.60;99.90;;;;;;2496774;23;20004;-74
2023/08/20 04:24:57;;;;;;;31.60;19.98;;;20.60;99.90;;;;;;2495979;23;20377;-74
2023/08/20 04:25:58;;;;;;;22.98;19.45;;;20.60;99.90;;;;;;2496037;23;20015;-74
2023/08/20 04:26:59;;;;;;;20.33;17.73;;;20.60;99.90;;;;;;2483789;23;20071;-74
2023/08/20 04:27:59;;;;;;;19.83;17.42;;;20.60;99.90;;;;;;2483682;23;20007;-74
2023/08/20 04:29:00;;;;;;;20.13;17.95;;;20.60;99.90;;;;;;2483974;23;20497;-74
2023/08/20 04:30:00;;;;;;;23.23;18.33;;;20.60;99.90;;;;;;2483559;23;20763;-74
2023/08/20 04:31:01;;;;;;;26.25;18.88;;;20.70;99.90;;;;;;2483938;23;20082;-74
2023/08/20 04:32:02;;;;;;;23.08;19.08;;;20.70;99.90;;;;;;2495892;23;20010;-74
2023/08/20 04:33:03;;;;;;;22.00;19.70;;;20.70;99.90;;;;;;2495737;23;20047;-74
2023/08/20 04:34:03;;;;;;;23.27;19.55;;;20.70;99.90;;;;;;2495490;23;20010;-74
2023/08/20 04:35:04;;;;;;;33.20;21.55;;;20.70;99.90;;;;;;2495536;23;20116;-74
2023/08/20 04:36:05;;;;;;;25.17;20.27;;;20.70;99.90;;;;;;2495503;23;20010;-74
2023/08/20 04:37:05;;;;;;;35.65;23.13;;;20.70;99.90;;;;;;2496451;23;19999;-74
2023/08/20 04:38:07;;;;;;;35.67;25.60;;;20.70;99.90;;;;;;2495578;23;20007;-74
2023/08/20 04:39:08;;;;;;;38.13;27.13;;;20.70;99.90;;;;;;2495420;23;20373;-74
2023/08/20 04:40:09;;;;;;;48.80;28.23;;;20.70;99.90;;;;;;2496922;23;20074;-74
2023/08/20 04:41:10;;;;;;;48.55;31.85;;;20.80;99.90;;;;;;2496293;23;20542;-74
2023/08/20 04:42:10;;;;;;;55.28;35.05;;;20.80;99.90;;;;;;2482729;23;20351;-74
2023/08/20 04:43:11;;;;;;;67.78;36.22;;;20.80;99.90;;;;;;2483585;23;20003;-75
2023/08/20 04:44:11;;;;;;;72.05;37.55;;;20.80;99.90;;;;;;2496126;23;20054;-74
2023/08/20 04:45:12;;;;;;;69.93;38.30;;;20.80;99.90;;;;;;2495281;23;20014;-75
2023/08/20 04:46:13;;;;;;;68.53;37.22;;;20.80;99.90;;;;;;2495199;23;20011;-74
2023/08/20 04:47:13;;;;;;;62.25;37.75;;;20.80;99.90;;;;;;2496638;23;20023;-74
2023/08/20 04:48:14;;;;;;;66.80;38.35;;;20.80;99.90;;;;;;2496430;23;20326;-74
2023/08/20 04:49:14;;;;;;;71.82;38.15;;;20.80;99.90;;;;;;2496171;23;20011;-74
2023/08/20 04:50:15;;;;;;;66.97;38.70;;;20.80;99.90;;;;;;2496310;23;20007;-75
2023/08/20 04:51:15;;;;;;;78.65;40.83;;;20.80;99.90;;;;;;2496600;23;20004;-74
2023/08/20 04:52:16;;;;;;;74.25;40.30;;;20.80;99.90;;;;;;2495535;23;20079;-74
2023/08/20 04:53:17;;;;;;;79.30;40.22;;;20.80;99.90;;;;;;2496688;23;20082;-74
2023/08/20 04:54:17;;;;;;;83.10;39.50;;;20.80;99.90;;;;;;2495385;23;20094;-75
2023/08/20 04:55:18;;;;;;;71.75;40.88;;;20.80;99.90;;;;;;2496542;23;20007;-74
2023/08/20 04:56:18;;;;;;;72.82;38.30;;;20.80;99.90;;;;;;2495893;23;20425;-74
2023/08/20 04:57:19;;;;;;;69.88;39.63;;;20.90;99.90;;;;;;2496323;23;20031;-74
2023/08/20 04:58:20;;;;;;;90.07;41.00;;;20.90;99.90;;;;;;2496584;23;20006;-74
2023/08/20 04:59:20;;;;;;;78.50;38.70;;;20.90;99.90;;;;;;2496416;23;20033;-74
2023/08/20 05:00:22;;;;;;;70.57;38.80;;;20.80;99.90;;;;;;2495761;23;20306;-74
2023/08/20 05:01:22;;;;;;;62.63;38.40;;;20.80;99.90;;;;;;2496172;23;20424;-74
2023/08/20 05:02:23;;;;;;;64.90;39.80;;;20.80;99.90;;;;;;2495721;23;20008;-74
2023/08/20 05:03:25;;;;;;;62.45;39.47;;;20.80;99.90;;;;;;2496352;23;20014;-74
2023/08/20 05:04:26;;;;;;;73.60;39.65;;;20.90;99.90;;;;;;2496172;23;20041;-74
2023/08/20 05:05:26;;;;;;;81.78;39.70;;;20.90;99.90;;;;;;2495115;23;20011;-74
2023/08/20 05:06:27;;;;;;;75.47;38.05;;;20.80;99.90;;;;;;2483712;23;20457;-74
2023/08/20 05:07:28;;;;;;;74.97;38.22;;;20.90;99.90;;;;;;2471931;24;20048;-74
2023/08/20 05:08:28;;;;;;;70.18;39.60;;;20.90;99.90;;;;;;2471741;23;20036;-74
2023/08/20 05:09:29;;;;;;;67.93;38.60;;;20.90;99.90;;;;;;2484099;23;20059;-75
2023/08/20 05:10:29;;;;;;;70.70;39.40;;;20.90;99.90;;;;;;2496249;23;20003;-74
2023/08/20 05:11:32;;;;;;;54.97;38.78;;;20.90;99.90;;;;;;2495655;23;20052;-74
2023/08/20 05:12:33;;;;;;;63.08;37.65;;;21.00;99.90;;;;;;2495212;23;20014;-74
2023/08/20 05:13:33;;;;;;;69.85;37.72;;;21.00;99.90;;;;;;2496577;23;20007;-74
2023/08/20 05:14:34;;;;;;;52.22;38.75;;;21.00;99.90;;;;;;2496083;23;20428;-74
2023/08/20 05:15:35;;;;;;;47.13;36.85;;;21.00;99.90;;;;;;2496080;23;20007;-74